Time;durP1;ratioP1;P1;durP2;ratioP2;P2;SDS_P1;SDS_P2;PMS_P1;PMS_P2;Temp;Humidity;BMP_temperature;BMP_pressure;BME280_temperature;BME280_humidity;BME280_pressure;Samples;Min_cycle;Max_cycle;Signal;HPM_P1;HPM_P2
2021/03/27 00:00:51;;;;;;;11.07;10.07;;;12.60;99.90;;;;;;4924809;28;20621;-63
2021/03/27 00:03:58;;;;;;;11.47;10.27;;;12.60;99.90;;;;;;4924758;28;20665;-63
2021/03/27 00:07:08;;;;;;;11.43;9.30;;;12.50;99.90;;;;;;4921592;28;20736;-63
2021/03/27 00:09:50;;;;;;;9.77;8.53;;;12.50;99.90;;;;;;4914154;28;20654;-63
2021/03/27 00:12:45;;;;;;;10.30;8.90;;;12.40;99.90;;;;;;4921840;28;20651;-63
2021/03/27 00:15:25;;;;;;;9.67;8.63;;;12.40;99.90;;;;;;4901863;28;20656;-63
2021/03/27 00:18:00;;;;;;;10.60;9.60;;;12.30;99.90;;;;;;4910109;28;20681;-63
2021/03/27 00:20:35;;;;;;;11.97;9.40;;;12.30;99.90;;;;;;4925368;28;20589;-63
2021/03/27 00:23:07;;;;;;;10.57;9.53;;;12.30;99.90;;;;;;4924425;28;21283;-63
2021/03/27 00:26:08;;;;;;;11.90;9.80;;;12.30;99.90;;;;;;4927228;28;20645;-63
2021/03/27 00:28:50;;;;;;;11.00;9.80;;;12.20;99.90;;;;;;4891009;28;20621;-63
2021/03/27 00:31:53;;;;;;;10.40;9.40;;;12.20;99.90;;;;;;4909310;28;23067;-62
2021/03/27 00:34:21;;;;;;;11.10;9.63;;;12.20;99.90;;;;;;4893274;28;20760;-63
2021/03/27 00:36:55;;;;;;;9.93;9.07;;;12.10;99.90;;;;;;4924913;28;22565;-63
2021/03/27 00:39:47;;;;;;;12.83;9.93;;;12.10;99.90;;;;;;4924556;28;20617;-63
2021/03/27 00:42:23;;;;;;;13.30;9.40;;;12.10;99.90;;;;;;4928346;28;20638;-62
2021/03/27 00:45:08;;;;;;;10.83;9.70;;;12.10;99.90;;;;;;4926799;28;20646;-63
2021/03/27 00:47:45;;;;;;;10.47;9.33;;;12.00;99.90;;;;;;4925094;28;20648;-63
2021/03/27 00:50:23;;;;;;;11.47;9.80;;;12.00;99.90;;;;;;4925695;28;21034;-63
2021/03/27 00:53:00;;;;;;;11.63;10.33;;;12.00;99.90;;;;;;4924772;28;22736;-63
2021/03/27 00:55:43;;;;;;;12.70;10.63;;;11.90;99.90;;;;;;4934745;28;20645;-64
2021/03/27 00:58:20;;;;;;;11.30;10.10;;;12.00;99.90;;;;;;4929809;28;20641;-62
2021/03/27 01:00:52;;;;;;;13.90;10.07;;;11.90;99.90;;;;;;4926688;28;21204;-63
2021/03/27 01:03:22;;;;;;;12.07;10.97;;;11.90;99.90;;;;;;4928094;28;21049;-64
2021/03/27 01:05:56;;;;;;;11.17;10.17;;;11.90;99.90;;;;;;4925367;28;20827;-64
2021/03/27 01:08:26;;;;;;;12.50;11.27;;;11.90;99.90;;;;;;4923630;28;20703;-60
2021/03/27 01:11:12;;;;;;;;;;;;;;;;;;;;;
2021/03/27 01:13:59;;;;;;;12.43;10.47;;;11.80;99.90;;;;;;4919982;28;20666;-62
2021/03/27 01:16:51;;;;;;;12.10;10.80;;;11.80;99.90;;;;;;4925893;28;20594;-61
2021/03/27 01:19:34;;;;;;;11.70;10.50;;;11.70;99.90;;;;;;4919487;28;20661;-63
2021/03/27 01:22:07;;;;;;;11.17;9.47;;;11.70;99.90;;;;;;4929264;28;21050;-62
2021/03/27 01:24:36;;;;;;;12.20;10.60;;;11.70;99.90;;;;;;4904851;28;24053;-62
2021/03/27 01:27:15;;;;;;;13.20;11.90;;;11.70;99.90;;;;;;4928288;28;20811;-62
2021/03/27 01:29:56;;;;;;;12.37;11.17;;;11.70;99.90;;;;;;4928403;28;21006;-62
2021/03/27 01:33:03;;;;;;;12.30;11.10;;;11.70;99.90;;;;;;4926607;28;20658;-61
2021/03/27 01:36:10;;;;;;;11.97;10.50;;;11.60;99.90;;;;;;4827955;29;22510;-61
2021/03/27 01:39:02;;;;;;;11.60;10.37;;;11.60;99.90;;;;;;4829249;29;20668;-61
2021/03/27 01:41:48;;;;;;;12.70;11.23;;;11.60;99.90;;;;;;4827111;29;20673;-61
2021/03/27 01:44:56;;;;;;;11.83;10.60;;;11.60;99.90;;;;;;4826412;29;20621;-61
2021/03/27 01:47:59;;;;;;;11.67;10.47;;;11.60;99.90;;;;;;4823824;29;21007;-61
2021/03/27 01:50:42;;;;;;;11.47;10.33;;;11.50;99.90;;;;;;4828183;29;20622;-60
2021/03/27 01:53:32;;;;;;;11.70;10.60;;;11.40;99.90;;;;;;4814160;29;20658;-61
2021/03/27 01:56:20;;;;;;;11.63;10.40;;;11.40;99.90;;;;;;4827025;29;20783;-60
2021/03/27 01:58:55;;;;;;;13.13;10.73;;;11.40;99.90;;;;;;4825950;29;21766;-61
2021/03/27 02:01:37;;;;;;;13.00;11.03;;;11.40;99.90;;;;;;4842242;29;20741;-61
2021/03/27 02:04:13;;;;;;;12.50;10.80;;;11.30;99.90;;;;;;4828814;29;20638;-61
2021/03/27 02:06:50;;;;;;;12.10;10.73;;;11.30;99.90;;;;;;4888674;28;20641;-63
2021/03/27 02:09:32;;;;;;;13.57;10.80;;;11.20;99.90;;;;;;4927169;28;20643;-62
2021/03/27 02:12:23;;;;;;;11.93;10.57;;;11.20;99.90;;;;;;4926527;28;20656;-62
2021/03/27 02:15:18;;;;;;;12.83;10.60;;;11.20;99.90;;;;;;4905638;28;20738;-61
2021/03/27 02:18:08;;;;;;;11.70;10.50;;;11.20;99.90;;;;;;4918946;28;20610;-60
2021/03/27 02:21:09;;;;;;;11.20;10.10;;;11.20;99.90;;;;;;4925970;28;20712;-61
2021/03/27 02:24:05;;;;;;;10.90;9.80;;;11.20;99.90;;;;;;4871963;28;20677;-61
2021/03/27 02:26:52;;;;;;;10.67;9.53;;;11.10;99.90;;;;;;4923969;28;20956;-61
2021/03/27 02:29:42;;;;;;;10.80;9.70;;;11.10;99.90;;;;;;4927789;28;23335;-61
2021/03/27 02:32:14;;;;;;;11.37;10.27;;;11.10;99.90;;;;;;4920868;28;20676;-63
2021/03/27 02:34:54;;;;;;;11.00;9.70;;;11.00;99.90;;;;;;4903972;28;20761;-60
2021/03/27 02:37:39;;;;;;;10.93;9.37;;;11.00;99.90;;;;;;4921341;28;20632;-63
2021/03/27 02:40:36;;;;;;;10.53;9.53;;;11.00;99.90;;;;;;4924869;28;20994;-61
2021/03/27 02:43:44;;;;;;;10.73;9.70;;;11.00;99.90;;;;;;4928771;28;22821;-63
2021/03/27 02:46:43;;;;;;;10.83;9.77;;;11.10;99.90;;;;;;4926299;28;20645;-60
2021/03/27 02:49:35;;;;;;;9.30;8.40;;;11.00;99.90;;;;;;4926187;28;20610;-63
2021/03/27 02:52:27;;;;;;;10.50;9.20;;;11.00;99.90;;;;;;4924359;28;20673;-63
2021/03/27 02:55:35;;;;;;;8.97;8.20;;;11.00;99.90;;;;;;4926420;28;21156;-61
2021/03/27 02:58:15;;;;;;;13.27;9.97;;;11.10;99.90;;;;;;4864538;28;20631;-64
2021/03/27 03:01:00;;;;;;;10.00;9.10;;;11.10;99.90;;;;;;4928448;28;20613;-61
2021/03/27 03:03:39;;;;;;;9.60;8.50;;;11.10;99.90;;;;;;4924574;28;20656;-61
2021/03/27 03:06:39;;;;;;;10.00;8.20;;;11.10;99.90;;;;;;4927418;28;20736;-61
2021/03/27 03:09:38;;;;;;;10.17;8.90;;;11.20;99.90;;;;;;4928578;28;20622;-61
2021/03/27 03:12:40;;;;;;;9.90;8.73;;;11.30;99.90;;;;;;4924606;28;20738;-63
2021/03/27 03:15:29;;;;;;;10.30;9.20;;;11.20;99.90;;;;;;4908876;28;20660;-63
2021/03/27 03:18:06;;;;;;;11.07;8.60;;;11.30;99.90;;;;;;4905269;28;20633;-63
2021/03/27 03:20:59;;;;;;;9.50;8.57;;;11.30;99.90;;;;;;4927633;28;21147;-63
2021/03/27 03:24:05;;;;;;;10.27;9.00;;;11.30;99.90;;;;;;4909017;28;21310;-63
2021/03/27 03:26:55;;;;;;;10.50;9.43;;;11.30;99.90;;;;;;4924889;28;21139;-62
2021/03/27 03:29:54;;;;;;;9.33;8.33;;;11.30;99.90;;;;;;4925527;28;21226;-62
2021/03/27 03:32:56;;;;;;;;;;;;;;;;;;;;;
2021/03/27 03:35:38;;;;;;;10.23;9.23;;;11.20;99.90;;;;;;4928693;28;20715;-60
2021/03/27 03:38:25;;;;;;;9.10;8.20;;;11.20;99.90;;;;;;4925981;28;20646;-60
2021/03/27 03:41:14;;;;;;;9.03;8.13;;;11.20;99.90;;;;;;4927645;28;21214;-60
2021/03/27 03:44:06;;;;;;;10.10;9.13;;;11.20;99.90;;;;;;4926801;28;21128;-60
2021/03/27 03:47:09;;;;;;;10.03;9.03;;;11.30;99.90;;;;;;4927517;28;20630;-64
2021/03/27 03:50:13;;;;;;;11.23;9.27;;;11.30;99.90;;;;;;4926027;28;20621;-64
2021/03/27 03:53:09;;;;;;;8.90;8.10;;;11.40;99.90;;;;;;4924974;28;20645;-64
2021/03/27 03:55:45;;;;;;;9.07;8.17;;;11.50;99.90;;;;;;4924456;28;20684;-64
2021/03/27 03:58:25;;;;;;;9.40;8.50;;;11.40;99.90;;;;;;4924926;28;20932;-64
2021/03/27 04:01:23;;;;;;;12.20;8.70;;;11.40;99.90;;;;;;4926999;28;20710;-63
2021/03/27 04:03:56;;;;;;;10.47;8.70;;;11.40;99.90;;;;;;4923695;28;20720;-62
2021/03/27 04:06:46;;;;;;;9.83;8.90;;;11.50;99.90;;;;;;5067160;27;26669;-64
2021/03/27 04:09:47;;;;;;;11.83;9.70;;;11.50;99.90;;;;;;5033202;28;21698;-64
2021/03/27 04:12:41;;;;;;;10.87;9.17;;;11.50;99.90;;;;;;5028228;27;20699;-63
2021/03/27 04:15:21;;;;;;;10.70;9.10;;;11.50;99.90;;;;;;5023760;28;20777;-62
2021/03/27 04:18:12;;;;;;;11.20;9.40;;;11.40;99.90;;;;;;5027896;28;20724;-63
2021/03/27 04:21:07;;;;;;;11.20;10.10;;;11.40;99.90;;;;;;5006991;28;20629;-62
2021/03/27 04:24:00;;;;;;;7.70;6.97;;;11.40;99.90;;;;;;5004706;28;20916;-65
2021/03/27 04:27:03;;;;;;;6.43;5.83;;;11.20;99.90;;;;;;5031572;28;21246;-63
2021/03/27 04:30:13;;;;;;;7.30;6.60;;;10.90;99.90;;;;;;5028492;28;20596;-65
2021/03/27 04:33:01;;;;;;;6.87;5.80;;;10.70;99.90;;;;;;5024997;28;23536;-64
2021/03/27 04:38:12;;;;;;;6.80;6.10;;;10.40;99.90;;;;;;4989552;28;22327;-66
2021/03/27 04:40:52;;;;;;;6.83;6.23;;;10.30;99.90;;;;;;4997237;28;20610;-66
2021/03/27 04:43:36;;;;;;;6.70;6.10;;;10.20;99.90;;;;;;5017393;28;21186;-64
2021/03/27 04:46:30;;;;;;;6.10;5.43;;;9.90;99.90;;;;;;5015411;28;21303;-67
2021/03/27 04:49:21;;;;;;;4.40;3.70;;;9.80;99.90;;;;;;5019270;28;21261;-63
2021/03/27 04:52:06;;;;;;;3.33;3.13;;;9.50;99.90;;;;;;4981626;28;20649;-64
2021/03/27 04:55:00;;;;;;;2.77;2.57;;;9.30;99.90;;;;;;5000057;28;20784;-64
2021/03/27 04:57:56;;;;;;;3.20;2.70;;;9.10;99.90;;;;;;5013622;28;20665;-65
2021/03/27 05:00:42;;;;;;;3.57;2.90;;;9.00;99.90;;;;;;5002469;28;20620;-64
2021/03/27 05:03:36;;;;;;;2.63;2.43;;;8.70;99.90;;;;;;4996879;28;20763;-64
2021/03/27 05:06:19;;;;;;;2.50;2.30;;;8.70;99.90;;;;;;5009785;28;20907;-61
2021/03/27 05:09:13;;;;;;;2.43;2.10;;;8.60;99.90;;;;;;4994081;28;20681;-60
2021/03/27 05:12:32;;;;;;;2.53;2.33;;;8.50;99.90;;;;;;5006315;28;20899;-61
2021/03/27 05:15:19;;;;;;;2.47;2.27;;;8.50;99.90;;;;;;5002719;28;20699;-60
2021/03/27 05:17:47;;;;;;;3.97;2.10;;;8.40;99.90;;;;;;5007260;28;20616;-61
2021/03/27 05:20:37;;;;;;;2.20;2.00;;;8.40;99.90;;;;;;5004865;28;20727;-61
2021/03/27 05:23:10;;;;;;;1.73;1.63;;;8.40;99.90;;;;;;5003222;28;21221;-60
2021/03/27 05:25:55;;;;;;;2.37;2.17;;;8.30;99.90;;;;;;5004594;28;21293;-61
2021/03/27 05:28:32;;;;;;;2.47;2.27;;;8.30;99.90;;;;;;4999931;28;21434;-61
2021/03/27 05:31:33;;;;;;;2.20;2.00;;;8.10;99.90;;;;;;4989571;28;20654;-61
2021/03/27 05:34:19;;;;;;;2.90;2.60;;;8.10;99.90;;;;;;4999617;28;20651;-60
2021/03/27 05:37:12;;;;;;;2.60;2.40;;;8.00;99.90;;;;;;5000882;28;20692;-62
2021/03/27 05:39:53;;;;;;;3.67;2.67;;;7.90;99.90;;;;;;5002394;28;20629;-60
2021/03/27 05:42:53;;;;;;;2.73;2.53;;;7.90;99.90;;;;;;5003828;28;21227;-60
2021/03/27 05:45:48;;;;;;;3.17;2.80;;;8.00;99.90;;;;;;4977734;28;21196;-61
2021/03/27 05:48:51;;;;;;;3.33;3.03;;;8.00;99.90;;;;;;4997192;28;20732;-61
2021/03/27 05:51:51;;;;;;;3.70;3.20;;;7.90;99.90;;;;;;4997292;28;20707;-61
2021/03/27 05:54:40;;;;;;;3.83;3.07;;;7.80;99.90;;;;;;4998277;28;20996;-60
2021/03/27 05:57:46;;;;;;;3.03;2.83;;;7.80;99.90;;;;;;4999455;28;20653;-61
2021/03/27 06:00:49;;;;;;;3.30;2.97;;;7.80;99.90;;;;;;4991597;28;20660;-61
2021/03/27 06:03:29;;;;;;;4.17;3.07;;;7.90;99.90;;;;;;4997129;28;20652;-62
2021/03/27 06:06:28;;;;;;;3.53;3.10;;;7.80;99.90;;;;;;4980459;28;20993;-60
2021/03/27 06:09:36;;;;;;;3.77;3.30;;;7.70;99.90;;;;;;4999914;28;20601;-60
2021/03/27 06:12:16;;;;;;;3.37;3.10;;;7.70;99.90;;;;;;4997307;28;20709;-60
2021/03/27 06:15:19;;;;;;;4.03;3.40;;;7.70;99.90;;;;;;4988456;28;20647;-60
2021/03/27 06:18:07;;;;;;;3.67;3.37;;;7.80;99.90;;;;;;4975648;28;20853;-60
2021/03/27 06:21:05;;;;;;;2.77;2.57;;;7.80;99.90;;;;;;4949898;28;20719;-60
2021/03/27 06:23:56;;;;;;;2.60;2.40;;;7.80;99.90;;;;;;4981717;28;20807;-60
2021/03/27 06:27:07;;;;;;;3.47;3.17;;;7.80;99.90;;;;;;5004085;28;20940;-60
2021/03/27 06:30:10;;;;;;;3.30;3.00;;;7.80;99.90;;;;;;5002234;28;20645;-60
2021/03/27 06:32:50;;;;;;;3.33;2.50;;;7.70;99.90;;;;;;4990162;28;20731;-60
2021/03/27 06:35:54;;;;;;;3.67;3.27;;;7.70;99.90;;;;;;4980036;28;20829;-60
2021/03/27 06:38:31;;;;;;;2.77;2.53;;;7.80;99.90;;;;;;4993813;28;21348;-62
2021/03/27 06:41:24;;;;;;;3.40;3.07;;;7.80;99.90;;;;;;4981190;28;20756;-61
2021/03/27 06:44:01;;;;;;;5.17;3.20;;;7.80;99.90;;;;;;4994235;28;21363;-61
2021/03/27 06:46:58;;;;;;;3.40;3.10;;;7.80;99.90;;;;;;4991446;28;20697;-61
2021/03/27 06:49:52;;;;;;;3.07;2.77;;;7.80;99.90;;;;;;4977290;28;20622;-60
2021/03/27 06:52:35;;;;;;;4.37;3.97;;;7.80;99.90;;;;;;4973440;28;24537;-60
2021/03/27 06:55:15;;;;;;;4.50;4.10;;;7.80;99.90;;;;;;4977387;28;20673;-60
2021/03/27 06:57:54;;;;;;;4.40;3.90;;;7.70;99.90;;;;;;4990825;28;20742;-61
2021/03/27 07:00:35;;;;;;;5.00;3.80;;;7.70;99.90;;;;;;4977624;28;20888;-61
2021/03/27 07:03:38;;;;;;;4.53;4.10;;;7.70;99.90;;;;;;4974713;28;20647;-62
2021/03/27 07:06:41;;;;;;;5.43;4.30;;;7.70;99.90;;;;;;4981283;28;20705;-59
2021/03/27 07:09:41;;;;;;;4.70;4.30;;;7.70;99.90;;;;;;4958571;28;20631;-59
2021/03/27 07:12:19;;;;;;;5.30;4.77;;;7.60;99.90;;;;;;4956211;28;21103;-61
2021/03/27 07:15:42;;;;;;;4.63;4.20;;;7.60;99.90;;;;;;4956451;28;20663;-60
2021/03/27 07:18:41;;;;;;;6.33;4.90;;;7.70;99.90;;;;;;4891479;28;20627;-60
2021/03/27 07:21:48;;;;;;;5.60;4.30;;;7.70;99.90;;;;;;4901925;28;20763;-61
2021/03/27 07:24:20;;;;;;;5.70;4.97;;;7.80;99.90;;;;;;4911124;28;20630;-60
2021/03/27 07:27:15;;;;;;;5.70;4.80;;;7.70;99.90;;;;;;4909126;28;20704;-59
2021/03/27 07:29:43;;;;;;;5.13;4.30;;;7.60;99.90;;;;;;4907942;28;22632;-61
2021/03/27 07:32:28;;;;;;;4.83;4.30;;;7.70;99.90;;;;;;4927317;28;21195;-60
2021/03/27 07:35:21;;;;;;;3.20;2.90;;;7.60;99.90;;;;;;4909930;28;21149;-60
2021/03/27 07:38:24;;;;;;;2.87;2.07;;;7.40;99.90;;;;;;4913037;28;21490;-60
2021/03/27 07:41:24;;;;;;;3.10;2.50;;;7.10;99.90;;;;;;4925338;28;20634;-61
2021/03/27 07:44:09;;;;;;;2.40;2.20;;;7.10;99.90;;;;;;4907197;28;21312;-61
2021/03/27 07:47:12;;;;;;;3.87;2.63;;;7.10;99.90;;;;;;4899145;28;20658;-61
2021/03/27 07:50:15;;;;;;;3.13;2.70;;;7.10;99.90;;;;;;4973712;28;20633;-60
2021/03/27 07:52:52;;;;;;;2.40;2.20;;;7.20;99.90;;;;;;4976026;28;20650;-61
2021/03/27 07:55:40;;;;;;;2.60;2.00;;;7.20;99.90;;;;;;4993692;28;20653;-60
2021/03/27 07:58:43;;;;;;;2.73;2.10;;;7.30;99.90;;;;;;4994936;28;20714;-60
2021/03/27 08:01:40;;;;;;;1.97;1.80;;;7.30;99.90;;;;;;4981997;28;20623;-60
2021/03/27 08:04:24;;;;;;;2.00;1.90;;;7.20;99.90;;;;;;4994986;28;20627;-60
2021/03/27 08:07:02;;;;;;;1.97;1.77;;;7.20;99.90;;;;;;5000503;28;20753;-61
2021/03/27 08:09:50;;;;;;;2.60;2.40;;;7.30;99.90;;;;;;4974966;28;21551;-61
2021/03/27 08:12:50;;;;;;;3.00;2.53;;;7.50;99.90;;;;;;4976313;28;22591;-61
2021/03/27 08:16:03;;;;;;;4.70;3.07;;;7.60;99.90;;;;;;4975820;28;20913;-61
2021/03/27 08:18:33;;;;;;;3.27;2.97;;;7.60;99.90;;;;;;4976137;28;20638;-64
2021/03/27 08:21:10;;;;;;;3.37;3.07;;;7.60;99.90;;;;;;4999392;28;21503;-61
2021/03/27 08:23:58;;;;;;;4.47;4.07;;;7.60;99.90;;;;;;4985305;28;20647;-62
2021/03/27 08:27:01;;;;;;;4.77;4.17;;;7.70;99.90;;;;;;4993968;28;20647;-61
2021/03/27 08:29:44;;;;;;;6.63;4.30;;;7.70;99.90;;;;;;4974611;28;20633;-61
2021/03/27 08:32:17;;;;;;;6.30;4.63;;;7.70;99.90;;;;;;4974847;28;20654;-64
2021/03/27 08:35:29;;;;;;;8.00;5.67;;;7.90;99.90;;;;;;4981209;28;22340;-61
2021/03/27 08:37:58;;;;;;;9.20;5.77;;;7.90;99.90;;;;;;4961521;28;20857;-61
2021/03/27 08:40:32;;;;;;;6.40;5.53;;;8.00;99.90;;;;;;4993037;28;20718;-60
2021/03/27 08:43:17;;;;;;;7.87;5.90;;;8.00;99.90;;;;;;4991182;28;20735;-61
2021/03/27 08:46:23;;;;;;;8.40;6.37;;;8.10;99.90;;;;;;4992263;28;21153;-60
2021/03/27 08:49:19;;;;;;;7.43;5.83;;;8.10;99.90;;;;;;4992939;28;22648;-60
2021/03/27 08:52:09;;;;;;;8.50;7.20;;;8.30;99.90;;;;;;4993691;28;21164;-60
2021/03/27 08:54:52;;;;;;;13.53;6.43;;;8.30;99.90;;;;;;4995332;28;20649;-61
2021/03/27 08:57:58;;;;;;;8.93;6.83;;;8.40;99.90;;;;;;5011114;28;20650;-60
2021/03/27 09:01:01;;;;;;;12.10;7.50;;;8.50;99.90;;;;;;4991611;28;21297;-60
2021/03/27 09:03:48;;;;;;;7.70;6.57;;;8.50;99.90;;;;;;4996895;28;20708;-61
2021/03/27 09:06:29;;;;;;;9.73;6.47;;;8.50;99.90;;;;;;4999963;28;20770;-61
2021/03/27 09:09:19;;;;;;;8.30;6.20;;;8.60;99.90;;;;;;4997708;28;20907;-61
2021/03/27 09:12:14;;;;;;;9.20;6.03;;;8.70;99.90;;;;;;4999385;28;20654;-64
2021/03/27 09:15:04;;;;;;;11.70;6.53;;;8.90;99.90;;;;;;5006181;28;20701;-68
2021/03/27 09:17:38;;;;;;;8.60;6.53;;;8.90;99.90;;;;;;4976510;28;20669;-61
2021/03/27 09:20:24;;;;;;;8.83;5.80;;;9.00;99.90;;;;;;4994084;28;20731;-61
2021/03/27 09:23:17;;;;;;;6.93;5.50;;;9.00;99.90;;;;;;5001734;28;21545;-61
2021/03/27 09:25:55;;;;;;;8.17;5.90;;;9.00;99.90;;;;;;4997429;28;20755;-60
2021/03/27 09:28:39;;;;;;;7.90;5.80;;;9.10;99.90;;;;;;4997980;28;20739;-61
2021/03/27 09:31:39;;;;;;;9.80;5.70;;;9.10;99.90;;;;;;4988960;28;21094;-60
2021/03/27 09:34:22;;;;;;;6.20;5.37;;;9.20;99.90;;;;;;4983433;28;20635;-63
2021/03/27 09:37:03;;;;;;;5.87;5.20;;;9.20;99.90;;;;;;4971550;28;20808;-60
2021/03/27 09:39:56;;;;;;;8.30;5.40;;;9.30;99.90;;;;;;4982899;28;20591;-62
2021/03/27 09:42:59;;;;;;;8.00;5.03;;;9.20;99.90;;;;;;5004208;28;21388;-61
2021/03/27 09:45:53;;;;;;;6.20;4.67;;;9.30;99.90;;;;;;4947515;28;20627;-59
2021/03/27 09:48:29;;;;;;;8.07;5.00;;;9.20;99.90;;;;;;4975712;28;20769;-61
2021/03/27 09:51:17;;;;;;;5.90;4.80;;;9.30;99.90;;;;;;4971154;28;21270;-64
2021/03/27 09:54:14;;;;;;;7.30;5.10;;;9.40;99.90;;;;;;4997515;28;20751;-65
2021/03/27 09:56:48;;;;;;;7.07;4.80;;;9.40;99.90;;;;;;5000743;28;20677;-65
2021/03/27 09:59:29;;;;;;;5.00;4.50;;;9.50;99.90;;;;;;5000779;28;20613;-66
2021/03/27 10:02:13;;;;;;;5.50;4.33;;;9.50;99.90;;;;;;5004552;28;20661;-66
2021/03/27 10:05:04;;;;;;;6.73;4.87;;;9.60;99.90;;;;;;5003985;28;20669;-66
2021/03/27 10:08:01;;;;;;;5.20;4.70;;;9.60;99.90;;;;;;5014522;28;20650;-62
2021/03/27 10:10:38;;;;;;;4.70;4.27;;;9.50;99.90;;;;;;4991514;28;20892;-67
2021/03/27 10:13:19;;;;;;;4.57;4.07;;;9.30;99.90;;;;;;5002525;28;20648;-66
2021/03/27 10:15:58;;;;;;;4.23;3.83;;;9.10;99.90;;;;;;5010405;28;20751;-65
2021/03/27 10:18:38;;;;;;;3.13;2.90;;;8.80;99.90;;;;;;4999797;28;20610;-67
2021/03/27 10:21:28;;;;;;;5.03;2.90;;;8.60;99.90;;;;;;5002271;28;20619;-65
2021/03/27 10:24:20;;;;;;;2.63;2.43;;;8.50;99.90;;;;;;5001483;28;20613;-65
2021/03/27 10:27:18;;;;;;;3.00;2.80;;;8.40;99.90;;;;;;4991187;28;20727;-60
2021/03/27 10:30:04;;;;;;;3.70;3.10;;;8.30;99.90;;;;;;4981263;28;20711;-60
2021/03/27 10:32:30;;;;;;;3.93;3.60;;;8.10;99.90;;;;;;4999752;28;20684;-64
2021/03/27 10:35:30;;;;;;;10.03;5.03;;;8.00;99.90;;;;;;4987924;28;21380;-64
2021/03/27 10:38:10;;;;;;;4.00;3.70;;;7.90;99.90;;;;;;4994742;28;20675;-60
2021/03/27 10:40:44;;;;;;;5.00;4.50;;;8.00;99.90;;;;;;5014735;28;22927;-59
2021/03/27 10:43:32;;;;;;;5.47;4.50;;;8.20;99.90;;;;;;5004622;28;20665;-58
2021/03/27 10:46:31;;;;;;;4.93;4.17;;;8.20;99.90;;;;;;4987826;28;20787;-58
2021/03/27 10:49:02;;;;;;;6.00;4.57;;;8.30;99.90;;;;;;5012937;28;22236;-59
2021/03/27 10:51:36;;;;;;;4.57;4.17;;;8.40;99.90;;;;;;5011823;28;21469;-58
2021/03/27 10:54:05;;;;;;;4.80;4.27;;;8.50;99.90;;;;;;5003189;28;20642;-59
2021/03/27 10:56:49;;;;;;;4.53;4.13;;;8.60;99.90;;;;;;4998009;28;20674;-59
2021/03/27 10:59:23;;;;;;;6.00;4.37;;;8.70;99.90;;;;;;5012029;28;20618;-59
2021/03/27 11:01:53;;;;;;;3.93;3.30;;;8.90;99.90;;;;;;5005228;28;20860;-60
2021/03/27 11:05:01;;;;;;;3.80;2.90;;;8.80;99.90;;;;;;4993605;28;20629;-60
2021/03/27 11:07:51;;;;;;;2.90;2.60;;;9.10;99.90;;;;;;5001449;28;20678;-63
2021/03/27 11:10:47;;;;;;;2.47;2.20;;;9.10;99.90;;;;;;4997953;28;20654;-60
2021/03/27 11:13:39;;;;;;;1.67;1.57;;;9.00;99.90;;;;;;4980093;28;20852;-60
2021/03/27 11:16:37;;;;;;;2.80;1.70;;;9.10;99.90;;;;;;4974434;28;20736;-60
2021/03/27 11:19:10;;;;;;;2.33;1.20;;;9.20;99.90;;;;;;4977707;28;20619;-59
2021/03/27 11:22:07;;;;;;;1.53;1.40;;;9.40;99.90;;;;;;4975215;28;20655;-61
2021/03/27 11:24:51;;;;;;;1.90;1.73;;;9.50;99.90;;;;;;4971868;28;20587;-60
2021/03/27 11:27:25;;;;;;;3.03;1.40;;;9.60;99.90;;;;;;4975376;28;20650;-59
2021/03/27 11:30:13;;;;;;;2.47;2.03;;;9.50;99.90;;;;;;4982067;28;20619;-60
2021/03/27 11:33:11;;;;;;;3.50;2.60;;;9.50;99.90;;;;;;4994302;28;21186;-60
2021/03/27 11:35:43;;;;;;;4.30;1.87;;;9.60;99.90;;;;;;4993403;28;20686;-59
2021/03/27 11:38:32;;;;;;;3.20;1.97;;;9.60;99.90;;;;;;5004141;28;20666;-59
2021/03/27 11:41:06;;;;;;;4.73;2.50;;;9.60;99.90;;;;;;4989746;28;23096;-60
2021/03/27 11:43:37;;;;;;;5.77;4.00;;;9.70;99.90;;;;;;4994165;28;21528;-60
2021/03/27 11:46:22;;;;;;;3.60;2.50;;;9.60;99.90;;;;;;4999796;28;21272;-65
2021/03/27 11:49:09;;;;;;;3.53;2.40;;;9.70;99.90;;;;;;5027242;22;21266;-63
2021/03/27 11:51:43;;;;;;;8.13;5.10;;;9.70;99.90;;;;;;5030852;28;21050;-61
2021/03/27 11:54:13;;;;;;;4.53;2.60;;;9.80;99.90;;;;;;5038115;28;20629;-61
2021/03/27 11:56:55;;;;;;;5.87;2.53;;;9.90;99.90;;;;;;5041343;28;21138;-61
2021/03/27 11:59:42;;;;;;;4.50;2.80;;;9.70;99.90;;;;;;5022695;28;21382;-63
2021/03/27 12:02:40;;;;;;;4.20;2.67;;;9.50;99.90;;;;;;5017191;28;21295;-62
2021/03/27 12:05:27;;;;;;;4.10;2.50;;;9.50;99.90;;;;;;4972793;28;20638;-63
2021/03/27 12:08:17;;;;;;;5.60;2.27;;;9.40;99.90;;;;;;5023545;28;20646;-63
2021/03/27 12:11:04;;;;;;;4.60;1.90;;;9.20;99.90;;;;;;5021374;28;20619;-64
2021/03/27 12:13:57;;;;;;;6.60;1.90;;;8.80;99.90;;;;;;5007170;28;21128;-63
2021/03/27 12:16:42;;;;;;;6.70;2.40;;;8.50;99.90;;;;;;5013364;28;20626;-63
2021/03/27 12:19:30;;;;;;;3.77;1.80;;;8.30;99.90;;;;;;5008169;28;21236;-64
2021/03/27 12:22:35;;;;;;;4.20;1.47;;;8.10;99.90;;;;;;5003454;28;20650;-64
2021/03/27 12:25:23;;;;;;;5.60;1.77;;;7.90;99.90;;;;;;5013329;28;20619;-64
2021/03/27 12:28:16;;;;;;;4.60;1.60;;;7.80;99.90;;;;;;5048444;28;20621;-63
2021/03/27 12:30:44;;;;;;;2.73;1.37;;;7.80;99.90;;;;;;5015009;28;20624;-65
2021/03/27 12:33:48;;;;;;;3.47;1.03;;;7.70;99.90;;;;;;5015438;28;20644;-65
2021/03/27 12:36:23;;;;;;;5.27;1.70;;;7.70;99.90;;;;;;5000177;28;20714;-63
2021/03/27 12:39:14;;;;;;;3.53;1.67;;;7.70;99.90;;;;;;5012599;28;20641;-63
2021/03/27 12:42:10;;;;;;;5.00;2.13;;;7.80;99.90;;;;;;5011025;28;21482;-65
2021/03/27 12:44:50;;;;;;;8.20;2.50;;;7.90;99.90;;;;;;5011570;28;21783;-65
2021/03/27 12:47:39;;;;;;;10.97;3.17;;;7.90;99.90;;;;;;5010039;28;22058;-64
2021/03/27 12:50:34;;;;;;;7.80;2.20;;;8.00;99.90;;;;;;5009945;28;20633;-65
2021/03/27 12:53:38;;;;;;;6.17;2.50;;;8.20;99.90;;;;;;5003401;28;20622;-64
2021/03/27 12:56:33;;;;;;;5.63;2.40;;;8.40;99.90;;;;;;5007639;28;20731;-64
2021/03/27 12:59:21;;;;;;;7.60;3.47;;;8.70;99.90;;;;;;4980537;28;21297;-64
2021/03/27 13:02:08;;;;;;;8.17;2.80;;;9.10;99.90;;;;;;4991788;28;21308;-66
2021/03/27 13:05:03;;;;;;;10.47;3.37;;;9.60;99.90;;;;;;5004442;28;20601;-64
2021/03/27 13:08:06;;;;;;;6.33;2.73;;;10.10;99.90;;;;;;5006358;28;20606;-64
2021/03/27 13:10:38;;;;;;;9.53;3.30;;;10.40;99.90;;;;;;4960112;28;20623;-64
2021/03/27 13:13:04;;;;;;;5.83;3.00;;;10.60;99.90;;;;;;4982307;28;20861;-64
2021/03/27 13:15:47;;;;;;;7.20;3.30;;;10.50;99.90;;;;;;4967921;28;20639;-64
2021/03/27 13:18:31;;;;;;;7.97;3.40;;;10.40;99.90;;;;;;4965792;28;20345;-66
2021/03/27 13:21:15;;;;;;;8.33;3.80;;;10.10;99.90;;;;;;4971931;28;22544;-64
2021/03/27 13:23:48;;;;;;;9.40;3.13;;;9.80;99.90;;;;;;4995072;28;21256;-64
2021/03/27 13:26:31;;;;;;;7.90;3.40;;;9.50;99.90;;;;;;4988097;28;20622;-64
2021/03/27 13:29:35;;;;;;;8.77;3.33;;;9.40;99.90;;;;;;5004049;28;20656;-64
2021/03/27 13:32:23;;;;;;;7.60;3.43;;;9.30;99.90;;;;;;5003274;28;22903;-64
2021/03/27 13:35:15;;;;;;;9.67;3.13;;;9.10;99.90;;;;;;5008075;28;21690;-65
2021/03/27 13:37:59;;;;;;;16.20;4.03;;;9.10;99.90;;;;;;4991075;28;21252;-65
2021/03/27 13:40:34;;;;;;;8.97;3.87;;;9.10;99.90;;;;;;4992442;28;20616;-66
2021/03/27 13:43:38;;;;;;;6.80;2.97;;;9.00;99.90;;;;;;4996722;28;20641;-66
2021/03/27 13:46:15;;;;;;;6.20;2.70;;;9.10;99.90;;;;;;5012154;28;20614;-66
2021/03/27 13:49:03;;;;;;;8.00;3.00;;;9.70;99.90;;;;;;5015526;28;20680;-65
2021/03/27 13:51:43;;;;;;;5.63;2.73;;;10.30;99.90;;;;;;4999038;28;20704;-66
2021/03/27 13:54:23;;;;;;;6.90;2.97;;;10.80;99.90;;;;;;4992110;28;20758;-65
2021/03/27 13:57:20;;;;;;;7.50;3.07;;;11.00;99.90;;;;;;5003475;28;20742;-63
2021/03/27 14:00:10;;;;;;;8.57;3.00;;;11.40;99.90;;;;;;5016549;28;20656;-62
2021/03/27 14:02:49;;;;;;;7.07;2.90;;;12.20;99.90;;;;;;5001617;28;23042;-62
2021/03/27 14:05:39;;;;;;;7.80;2.70;;;12.70;99.90;;;;;;5005198;28;20622;-62
2021/03/27 14:08:11;;;;;;;6.70;2.93;;;13.20;99.90;;;;;;5016921;28;21288;-64
2021/03/27 14:10:58;;;;;;;5.37;2.80;;;13.50;99.90;;;;;;5010521;28;20625;-65
2021/03/27 14:13:41;;;;;;;5.13;2.80;;;13.20;99.90;;;;;;5007307;28;20642;-64
2021/03/27 14:16:15;;;;;;;6.00;3.27;;;12.80;99.90;;;;;;5008771;28;20646;-61
2021/03/27 14:18:50;;;;;;;7.13;3.20;;;12.70;99.90;;;;;;4994000;28;21488;-59
2021/03/27 14:21:30;;;;;;;6.50;3.00;;;12.40;99.90;;;;;;5005174;28;20602;-60
2021/03/27 14:24:01;;;;;;;6.30;3.57;;;11.70;99.90;;;;;;4999500;28;20652;-66
2021/03/27 14:26:58;;;;;;;5.73;3.37;;;11.40;99.90;;;;;;4991640;28;20619;-62
2021/03/27 14:29:39;;;;;;;11.10;4.30;;;11.20;99.90;;;;;;5010168;28;20651;-64
2021/03/27 14:32:19;;;;;;;5.00;2.50;;;10.90;99.90;;;;;;4987324;28;20729;-62
2021/03/27 14:35:04;;;;;;;9.67;3.47;;;10.60;99.90;;;;;;5009780;28;20603;-65
2021/03/27 14:37:48;;;;;;;7.00;3.53;;;10.60;99.90;;;;;;4993650;28;20606;-65
2021/03/27 14:40:45;;;;;;;6.30;3.10;;;10.50;99.90;;;;;;4990545;28;20732;-66